Peru, Maine
Current Conditions -  °F | °C
As of 5:15 PM on Saturday 25 Oct 2014 (Local Time) from KLEW Reporting Station
Clear Clear  
Wind Chill: 57°   Ceiling: Unl
Heat Index: 57°   Visibility: 10mi
Dew Point: 41°   Wind: 8mph
Humidity: 55%   Direction: 180°S
Pressure: 29.54"   Gusts: NA
Location:  44.51°N, 70.41°W
Report Text: KLEW 252115Z AUTO 18007KT 10SM CLR 14/05 A2954 RMK AO1
Loading
Personal Weather Stations






























Interactive Weather Map
Tropical Storm Tracking
New forecast layout! Learn more

10-Day Weather Forecast

Advertisements
Track Severe Weather on mobile